Time;durP1;ratioP1;P1;durP2;ratioP2;P2;SDS_P1;SDS_P2;PMS_P1;PMS_P2;Temp;Humidity;BMP_temperature;BMP_pressure;BME280_temperature;BME280_humidity;BME280_pressure;Samples;Min_cycle;Max_cycle;Signal;HPM_P1;HPM_P2
2021/12/30 00:01:41;;;;;;;31.65;5.88;;;9.50;99.90;;;;;;5003299;28;20102;-52
2021/12/30 00:04:08;;;;;;;37.08;6.15;;;9.50;99.90;;;;;;4974898;28;20161;-49
2021/12/30 00:06:39;;;;;;;37.33;6.60;;;9.40;99.90;;;;;;4950805;28;20043;-50
2021/12/30 00:09:06;;;;;;;32.88;6.00;;;9.50;99.90;;;;;;4992716;28;20046;-50
2021/12/30 00:11:32;;;;;;;39.95;5.95;;;9.40;99.90;;;;;;4992524;28;20449;-48
2021/12/30 00:13:58;;;;;;;37.88;6.90;;;9.40;99.90;;;;;;4992620;28;20042;-48
2021/12/30 00:16:23;;;;;;;35.50;5.80;;;9.40;99.90;;;;;;4988154;28;20035;-47
2021/12/30 00:18:49;;;;;;;37.55;5.65;;;9.40;99.90;;;;;;4992365;28;20035;-51
2021/12/30 00:21:15;;;;;;;36.78;6.07;;;9.40;99.90;;;;;;4992029;28;20409;-52
2021/12/30 00:23:41;;;;;;;42.65;6.90;;;9.40;99.90;;;;;;4991884;28;20039;-49
2021/12/30 00:26:08;;;;;;;42.35;7.07;;;9.40;99.90;;;;;;4992836;28;20495;-47
2021/12/30 00:28:33;;;;;;;37.35;6.20;;;9.30;99.90;;;;;;4991830;28;20082;-47
2021/12/30 00:30:59;;;;;;;45.35;7.07;;;9.30;99.90;;;;;;4992514;28;20458;-52
2021/12/30 00:33:27;;;;;;;47.92;7.03;;;9.30;99.90;;;;;;4992618;28;20034;-49
2021/12/30 00:35:54;;;;;;;43.08;6.57;;;9.30;99.90;;;;;;4992657;28;20049;-48
2021/12/30 00:38:22;;;;;;;36.67;7.22;;;9.20;99.90;;;;;;4992652;28;20426;-49
2021/12/30 00:40:48;;;;;;;37.95;6.30;;;9.20;99.90;;;;;;4970781;28;20034;-47
2021/12/30 00:43:14;;;;;;;38.55;6.20;;;9.30;99.90;;;;;;4988568;28;20082;-47
2021/12/30 00:45:39;;;;;;;50.42;8.30;;;9.20;99.90;;;;;;4992027;28;20034;-49
2021/12/30 00:48:06;;;;;;;40.92;6.70;;;9.20;99.90;;;;;;4993204;28;20066;-47
2021/12/30 00:50:36;;;;;;;39.45;7.28;;;9.20;99.90;;;;;;4993622;28;20413;-49
2021/12/30 00:53:03;;;;;;;35.58;6.80;;;9.20;99.90;;;;;;4992077;28;20112;-47
2021/12/30 00:55:28;;;;;;;41.42;6.97;;;9.20;99.90;;;;;;4992210;28;20096;-51
2021/12/30 00:57:54;;;;;;;47.80;7.63;;;9.10;99.90;;;;;;4975085;28;20042;-50
2021/12/30 01:00:21;;;;;;;33.95;6.15;;;9.10;99.90;;;;;;4992375;28;20044;-50
2021/12/30 01:02:47;;;;;;;39.30;6.57;;;9.10;99.90;;;;;;4974581;28;20417;-48
2021/12/30 01:05:14;;;;;;;47.63;6.45;;;9.10;99.90;;;;;;4991997;28;20391;-48
2021/12/30 01:07:40;;;;;;;42.53;7.20;;;9.10;99.90;;;;;;4992033;28;20109;-48
2021/12/30 01:10:09;;;;;;;37.10;7.28;;;9.10;99.90;;;;;;4988219;28;20069;-50
2021/12/30 01:12:35;;;;;;;42.72;8.02;;;9.10;99.90;;;;;;4992035;28;20050;-49
2021/12/30 01:15:09;;;;;;;40.70;7.18;;;9.10;99.90;;;;;;4992325;28;20117;-49
2021/12/30 01:17:58;;;;;;;34.83;6.28;;;9.10;99.90;;;;;;4992148;28;20046;-50
2021/12/30 01:20:23;;;;;;;42.47;6.75;;;9.00;99.90;;;;;;4992022;28;20081;-50
2021/12/30 01:22:51;;;;;;;36.10;6.93;;;9.00;99.90;;;;;;4984098;28;20034;-47
2021/12/30 01:25:17;;;;;;;42.40;7.82;;;9.00;99.90;;;;;;4969184;28;20443;-49
2021/12/30 01:27:43;;;;;;;48.63;7.20;;;9.00;99.90;;;;;;4991863;28;20077;-50
2021/12/30 01:30:17;;;;;;;40.15;7.75;;;8.90;99.90;;;;;;4991266;28;20522;-50
2021/12/30 01:32:43;;;;;;;44.28;7.97;;;9.00;99.90;;;;;;4972237;28;20298;-50
2021/12/30 01:35:12;;;;;;;40.45;8.05;;;8.90;99.90;;;;;;4972247;28;20043;-50
2021/12/30 01:37:38;;;;;;;46.78;7.63;;;9.00;99.90;;;;;;4938792;28;20487;-49
2021/12/30 01:40:12;;;;;;;43.00;7.15;;;9.00;99.90;;;;;;4964682;28;20398;-48
2021/12/30 01:42:38;;;;;;;42.55;7.25;;;9.00;99.90;;;;;;4994662;28;20035;-50
2021/12/30 01:45:06;;;;;;;48.92;7.78;;;9.00;99.90;;;;;;4995246;28;20057;-48
2021/12/30 01:47:32;;;;;;;44.30;8.15;;;9.00;99.90;;;;;;4977569;28;20050;-48
2021/12/30 01:49:57;;;;;;;49.92;9.77;;;9.00;99.90;;;;;;4961719;28;20172;-48
2021/12/30 01:52:23;;;;;;;53.92;8.90;;;9.10;99.90;;;;;;4945931;28;20050;-48
2021/12/30 01:54:49;;;;;;;38.80;8.88;;;9.10;99.90;;;;;;4994967;28;20038;-50
2021/12/30 01:58:12;;;;;;;57.22;9.90;;;9.20;99.90;;;;;;4998581;28;20029;-51
2021/12/30 02:07:41;;;;;;;51.00;10.27;;;9.20;99.90;;;;;;5116325;22;20076;-49
2021/12/30 02:10:07;;;;;;;51.22;10.77;;;9.30;99.90;;;;;;4980548;28;20049;-50
2021/12/30 02:12:37;;;;;;;50.28;12.10;;;9.30;99.90;;;;;;5011107;28;20050;-50
2021/12/30 02:15:06;;;;;;;45.25;11.00;;;9.30;99.90;;;;;;5022304;28;20061;-52
2021/12/30 02:17:32;;;;;;;57.58;13.38;;;9.40;99.90;;;;;;5019825;28;20112;-49
2021/12/30 02:20:35;;;;;;;50.80;13.98;;;9.40;99.90;;;;;;5036123;28;20036;-50
2021/12/30 02:23:01;;;;;;;55.95;12.40;;;9.40;99.90;;;;;;4991553;28;20048;-50
2021/12/30 02:25:27;;;;;;;46.88;11.55;;;9.50;99.90;;;;;;4990506;28;20046;-49
2021/12/30 02:27:52;;;;;;;45.10;12.23;;;9.50;99.90;;;;;;5012074;28;20491;-48
2021/12/30 02:30:18;;;;;;;48.30;12.98;;;9.50;99.90;;;;;;5013888;28;20032;-49
2021/12/30 02:32:44;;;;;;;51.92;13.98;;;9.50;99.90;;;;;;4977724;28;20038;-49
2021/12/30 02:35:10;;;;;;;52.97;13.80;;;9.50;99.90;;;;;;5019031;28;20045;-48
2021/12/30 02:37:35;;;;;;;58.22;14.48;;;9.60;99.90;;;;;;4974197;28;20085;-51
2021/12/30 02:40:01;;;;;;;56.38;14.95;;;9.60;99.90;;;;;;5017377;28;20406;-49
2021/12/30 02:42:27;;;;;;;45.53;14.10;;;9.60;99.90;;;;;;4979725;28;20046;-50
2021/12/30 02:44:52;;;;;;;61.05;14.13;;;9.70;99.90;;;;;;5012524;28;20040;-51
2021/12/30 02:47:18;;;;;;;70.05;15.55;;;9.80;99.90;;;;;;5013593;28;20070;-49
2021/12/30 02:49:44;;;;;;;66.40;16.10;;;9.70;99.90;;;;;;4996334;28;20042;-50
2021/12/30 02:52:11;;;;;;;60.95;14.00;;;9.80;99.90;;;;;;4999743;28;20041;-51
2021/12/30 02:54:39;;;;;;;56.47;14.00;;;9.80;99.90;;;;;;5013316;28;20077;-51
2021/12/30 02:57:05;;;;;;;55.88;15.23;;;9.80;99.90;;;;;;5013436;28;20433;-47
2021/12/30 02:59:31;;;;;;;49.40;15.52;;;9.80;99.90;;;;;;5002943;28;20038;-48
2021/12/30 03:01:56;;;;;;;63.42;15.70;;;9.80;99.90;;;;;;4993310;28;20041;-50
2021/12/30 03:04:22;;;;;;;57.50;15.35;;;9.80;99.90;;;;;;5008503;28;20078;-51
2021/12/30 03:06:51;;;;;;;60.67;15.40;;;9.80;99.90;;;;;;4988218;28;20042;-49
2021/12/30 03:09:16;;;;;;;60.70;15.98;;;9.90;99.90;;;;;;5012752;28;20034;-50
2021/12/30 03:11:43;;;;;;;59.13;14.35;;;9.90;99.90;;;;;;5010555;28;20037;-48
2021/12/30 03:14:08;;;;;;;53.08;14.75;;;9.90;99.90;;;;;;4991273;28;20125;-48
2021/12/30 03:16:36;;;;;;;60.83;14.70;;;9.90;99.90;;;;;;4976229;28;20125;-49
2021/12/30 03:19:04;;;;;;;53.42;14.23;;;10.00;99.90;;;;;;4993386;28;20554;-47
2021/12/30 03:21:30;;;;;;;53.55;14.20;;;10.00;99.90;;;;;;4993649;28;20045;-48
2021/12/30 03:23:58;;;;;;;59.13;14.13;;;10.00;99.90;;;;;;4976200;28;20046;-49
2021/12/30 03:26:24;;;;;;;63.80;15.10;;;10.00;99.90;;;;;;4993489;28;20126;-50
2021/12/30 03:28:50;;;;;;;56.50;13.68;;;10.10;99.90;;;;;;4993434;28;20571;-49
2021/12/30 03:31:18;;;;;;;70.95;14.80;;;10.10;99.90;;;;;;5003686;28;20034;-48
2021/12/30 03:33:44;;;;;;;59.13;14.63;;;10.00;99.90;;;;;;5012712;28;20042;-48
2021/12/30 03:36:11;;;;;;;50.60;14.23;;;10.10;99.90;;;;;;5012914;28;20101;-49
2021/12/30 03:38:41;;;;;;;58.75;15.80;;;10.10;99.90;;;;;;5008520;28;20088;-48
2021/12/30 03:41:09;;;;;;;57.42;14.38;;;10.10;99.90;;;;;;4999633;28;20042;-50
2021/12/30 03:43:35;;;;;;;54.75;14.88;;;10.10;99.90;;;;;;4959729;28;20486;-50
2021/12/30 03:46:02;;;;;;;53.60;14.73;;;10.10;99.90;;;;;;4992880;28;20502;-48
2021/12/30 03:48:33;;;;;;;55.80;13.90;;;10.10;99.90;;;;;;4995576;28;20046;-49
2021/12/30 03:51:05;;;;;;;52.67;14.00;;;10.20;99.90;;;;;;5009989;28;20042;-51
2021/12/30 03:53:31;;;;;;;59.17;14.65;;;10.10;99.90;;;;;;5011637;28;20095;-52
2021/12/30 03:55:57;;;;;;;54.28;14.85;;;10.20;99.90;;;;;;5004705;28;20077;-50
2021/12/30 03:58:22;;;;;;;63.38;13.13;;;10.20;99.90;;;;;;4947415;28;20077;-51
2021/12/30 04:00:48;;;;;;;59.13;13.20;;;10.20;99.90;;;;;;4978699;28;20084;-50
2021/12/30 04:03:13;;;;;;;62.03;13.65;;;10.30;99.90;;;;;;5012118;28;20042;-51
2021/12/30 04:05:46;;;;;;;64.07;13.60;;;10.30;99.90;;;;;;5014599;22;20062;-58
2021/12/30 04:08:21;;;;;;;74.72;13.93;;;10.30;99.90;;;;;;4993665;28;20113;-56
2021/12/30 04:11:54;;;;;;;;;;;;;;;;;;;;;
2021/12/30 04:14:40;;;;;;;;;;;;;;;;;;;;;
2021/12/30 04:59:37;;;;;;;45.50;14.60;;;10.80;99.90;;;;;;4800704;29;20411;-58
2021/12/30 05:03:38;;;;;;;;;;;;;;;;;;;;;
2021/12/30 05:06:48;;;;;;;45.47;15.27;;;10.90;99.90;;;;;;4701297;30;20080;-58
2021/12/30 05:31:08;;;;;;;53.25;19.02;;;11.20;99.90;;;;;;4872033;29;20109;-57
2021/12/30 05:38:17;;;;;;;48.05;18.30;;;11.30;99.90;;;;;;4880473;29;20049;-57
2021/12/30 05:41:46;;;;;;;60.35;20.02;;;11.30;99.90;;;;;;4851857;29;20060;-59
2021/12/30 06:52:10;;;;;;;29.58;12.95;;;11.80;99.90;;;;;;4753586;29;20047;-59
2021/12/30 07:14:37;;;;;;;14.68;6.72;;;11.80;99.90;;;;;;4734930;30;20631;-60
2021/12/30 07:21:44;;;;;;;11.40;6.20;;;11.80;99.90;;;;;;4717251;30;20044;-58
2021/12/30 07:54:11;;;;;;;10.80;5.43;;;11.90;99.90;;;;;;4875686;28;20047;-63
2021/12/30 09:01:03;;;;;;;22.05;11.27;;;12.20;99.90;;;;;;4834748;29;20084;-61
2021/12/30 09:04:29;;;;;;;26.60;12.60;;;12.30;99.90;;;;;;4777041;30;20132;-60
2021/12/30 09:11:57;;;;;;;;;;;;;;;;;;;;;
2021/12/30 09:30:11;;;;;;;;;;;;;;;;;;;;;
2021/12/30 10:07:21;;;;;;;22.98;9.07;;;12.40;99.90;;;;;;5081734;27;20124;-53
2021/12/30 10:09:50;;;;;;;23.55;9.60;;;12.40;99.90;;;;;;5081031;28;20064;-53
2021/12/30 10:12:44;;;;;;;24.90;9.15;;;12.50;99.90;;;;;;5083877;28;20032;-52
2021/12/30 10:15:11;;;;;;;18.83;7.70;;;12.50;99.90;;;;;;5068633;28;20123;-51
2021/12/30 10:17:37;;;;;;;23.30;8.73;;;12.50;99.90;;;;;;5066552;28;20037;-52
2021/12/30 10:20:24;;;;;;;25.95;8.27;;;12.50;99.90;;;;;;5068718;28;20094;-53
2021/12/30 10:22:50;;;;;;;17.10;7.28;;;12.50;99.90;;;;;;5068362;28;20041;-53
2021/12/30 10:25:36;;;;;;;22.70;8.15;;;12.50;99.90;;;;;;5068458;28;20090;-50
2021/12/30 10:28:20;;;;;;;24.55;7.60;;;12.60;99.90;;;;;;5068216;28;20120;-50
2021/12/30 10:30:46;;;;;;;20.45;6.93;;;12.50;99.90;;;;;;5068581;28;20036;-50
2021/12/30 10:33:18;;;;;;;25.33;8.00;;;12.50;99.90;;;;;;5068301;28;20047;-53
2021/12/30 10:35:44;;;;;;;24.02;7.95;;;12.60;99.90;;;;;;5068496;28;20051;-51
2021/12/30 10:38:11;;;;;;;27.10;8.00;;;12.50;99.90;;;;;;5068403;28;20045;-53
2021/12/30 10:40:41;;;;;;;26.38;7.57;;;12.50;99.90;;;;;;5068429;28;20115;-52
2021/12/30 10:43:31;;;;;;;30.42;9.82;;;12.50;99.90;;;;;;5050446;28;20036;-51
2021/12/30 10:46:13;;;;;;;34.22;8.73;;;12.50;99.90;;;;;;5067193;28;20134;-51
2021/12/30 10:48:58;;;;;;;32.33;8.35;;;12.50;99.90;;;;;;5049316;28;20128;-53
2021/12/30 10:52:01;;;;;;;26.98;7.82;;;12.50;99.90;;;;;;5067995;28;20037;-48
2021/12/30 10:54:33;;;;;;;33.17;8.90;;;12.50;99.90;;;;;;5006109;28;20038;-53
2021/12/30 10:57:07;;;;;;;31.45;7.97;;;12.50;99.90;;;;;;5056619;28;20052;-53
2021/12/30 10:59:33;;;;;;;28.02;8.15;;;12.50;99.90;;;;;;5067919;28;20040;-51
2021/12/30 11:02:15;;;;;;;38.22;8.93;;;12.60;99.90;;;;;;5067651;28;20090;-53
2021/12/30 11:04:48;;;;;;;24.90;6.93;;;12.50;99.90;;;;;;5067708;28;20048;-54
2021/12/30 11:07:16;;;;;;;36.97;8.75;;;12.50;99.90;;;;;;5066414;28;20434;-51
2021/12/30 11:09:50;;;;;;;27.90;7.97;;;12.50;99.90;;;;;;5067826;28;20080;-53
2021/12/30 11:12:22;;;;;;;44.47;9.05;;;12.50;99.90;;;;;;5067426;28;20037;-53
2021/12/30 11:14:47;;;;;;;42.58;8.38;;;12.50;99.90;;;;;;5067372;28;20404;-53
2021/12/30 11:17:17;;;;;;;34.33;7.53;;;12.50;99.90;;;;;;5060567;28;20032;-50
2021/12/30 11:19:55;;;;;;;31.02;7.68;;;12.50;99.90;;;;;;5036717;28;20032;-53
2021/12/30 11:22:26;;;;;;;33.65;8.85;;;12.50;99.90;;;;;;5053974;28;20040;-53
2021/12/30 11:24:54;;;;;;;41.03;8.25;;;12.50;99.90;;;;;;5053326;28;20033;-53
2021/12/30 11:27:21;;;;;;;32.13;7.90;;;12.50;99.90;;;;;;5052935;28;20112;-52
2021/12/30 11:29:51;;;;;;;34.53;7.95;;;12.50;99.90;;;;;;5052765;28;20068;-48
2021/12/30 11:32:20;;;;;;;37.45;8.85;;;12.40;99.90;;;;;;5054019;28;20416;-52
2021/12/30 11:34:47;;;;;;;42.03;7.75;;;12.50;99.90;;;;;;5053582;28;20033;-52
2021/12/30 11:37:15;;;;;;;34.95;8.30;;;12.40;99.90;;;;;;5052654;28;20052;-52
2021/12/30 11:39:49;;;;;;;35.05;7.05;;;12.40;99.90;;;;;;5053707;28;20075;-53
2021/12/30 11:42:26;;;;;;;33.63;7.93;;;12.40;99.90;;;;;;5053948;28;20046;-50
2021/12/30 11:44:58;;;;;;;38.78;8.23;;;12.40;99.90;;;;;;5053170;28;20080;-49
2021/12/30 11:47:35;;;;;;;34.08;8.20;;;12.40;99.90;;;;;;5053813;28;20078;-52
2021/12/30 11:50:12;;;;;;;29.98;7.30;;;12.50;99.90;;;;;;5053430;28;20071;-52
2021/12/30 11:52:47;;;;;;;37.58;8.25;;;12.40;99.90;;;;;;5053598;28;20446;-53
2021/12/30 11:55:43;;;;;;;39.72;8.88;;;12.40;99.90;;;;;;5053375;28;20373;-50
2021/12/30 11:58:27;;;;;;;30.73;7.68;;;12.40;99.90;;;;;;5053561;28;20508;-53
2021/12/30 12:00:53;;;;;;;31.27;8.00;;;12.40;99.90;;;;;;5053709;28;20045;-51
2021/12/30 12:03:55;;;;;;;36.60;7.95;;;12.40;99.90;;;;;;5053589;28;20056;-52
2021/12/30 12:06:46;;;;;;;43.28;8.20;;;12.40;99.90;;;;;;5033215;28;20050;-53
2021/12/30 12:09:22;;;;;;;39.03;8.50;;;12.40;99.90;;;;;;5033594;28;20327;-47
2021/12/30 12:11:58;;;;;;;33.53;7.82;;;12.40;99.90;;;;;;5045032;28;20088;-51
2021/12/30 12:14:29;;;;;;;25.02;6.63;;;12.40;99.90;;;;;;5050985;28;20029;-53
2021/12/30 12:17:27;;;;;;;33.13;7.50;;;12.50;99.90;;;;;;5047785;28;20064;-53
2021/12/30 12:19:55;;;;;;;31.10;7.40;;;12.50;99.90;;;;;;5022146;28;20045;-53
2021/12/30 12:22:20;;;;;;;37.90;7.53;;;12.50;99.90;;;;;;5041915;28;20051;-53
2021/12/30 12:24:48;;;;;;;35.85;8.43;;;12.50;99.90;;;;;;5018961;28;20572;-50
2021/12/30 12:27:20;;;;;;;30.05;6.43;;;12.50;99.90;;;;;;5049875;28;20040;-53
2021/12/30 12:29:55;;;;;;;34.83;7.45;;;12.50;99.90;;;;;;5050475;28;20064;-52
2021/12/30 12:32:38;;;;;;;38.40;7.65;;;12.50;99.90;;;;;;5051809;28;20036;-51
2021/12/30 12:35:13;;;;;;;33.72;7.40;;;12.50;99.90;;;;;;5049541;28;20400;-54
2021/12/30 12:37:41;;;;;;;30.15;7.50;;;12.50;99.90;;;;;;5050034;28;20049;-54
2021/12/30 12:40:16;;;;;;;29.48;7.30;;;12.50;99.90;;;;;;5046057;28;20077;-53
2021/12/30 12:42:59;;;;;;;26.13;6.43;;;12.50;99.90;;;;;;5050404;28;20048;-54
2021/12/30 12:45:26;;;;;;;;;;;12.50;99.90;;;;;;5059507;28;20049;-52
2021/12/30 12:48:17;;;;;;;26.90;7.18;;;12.50;99.90;;;;;;5052052;28;19986;-52
2021/12/30 12:50:48;;;;;;;26.95;6.00;;;12.50;99.90;;;;;;5047158;28;20053;-51
2021/12/30 12:53:28;;;;;;;22.58;6.43;;;12.50;99.90;;;;;;5049558;28;20037;-52
2021/12/30 12:55:58;;;;;;;32.33;7.05;;;12.50;99.90;;;;;;5049841;28;20445;-52
2021/12/30 12:58:30;;;;;;;26.60;6.60;;;12.50;99.90;;;;;;5050183;28;20603;-51
2021/12/30 13:00:59;;;;;;;31.10;6.75;;;12.50;99.90;;;;;;5042384;28;20461;-54
2021/12/30 13:03:25;;;;;;;32.95;7.32;;;12.50;99.90;;;;;;5047360;28;20040;-55
2021/12/30 13:06:00;;;;;;;30.13;7.47;;;12.50;99.90;;;;;;5043490;28;20042;-56
2021/12/30 13:08:32;;;;;;;31.13;7.22;;;12.50;99.90;;;;;;5050277;28;20409;-55
2021/12/30 13:11:00;;;;;;;28.57;7.10;;;12.50;99.90;;;;;;5051660;28;20060;-55
2021/12/30 13:13:37;;;;;;;31.50;7.15;;;12.50;99.90;;;;;;5051875;28;20612;-56
2021/12/30 13:16:06;;;;;;;26.80;7.50;;;12.50;99.90;;;;;;5051216;28;20045;-55
2021/12/30 13:18:33;;;;;;;31.10;6.72;;;12.50;99.90;;;;;;5051982;28;20171;-55
2021/12/30 13:21:12;;;;;;;26.60;6.85;;;12.50;99.90;;;;;;5051712;28;20041;-52
2021/12/30 13:23:37;;;;;;;29.02;6.88;;;12.50;99.90;;;;;;5033334;28;20374;-55
2021/12/30 13:26:07;;;;;;;40.40;8.48;;;12.50;99.90;;;;;;5051314;28;20087;-56
2021/12/30 13:28:45;;;;;;;25.48;7.50;;;12.50;99.90;;;;;;5051990;28;20037;-54
2021/12/30 13:31:14;;;;;;;28.50;6.78;;;12.50;99.90;;;;;;5051817;28;20025;-55
2021/12/30 13:34:01;;;;;;;27.55;6.97;;;12.50;99.90;;;;;;5051903;28;20401;-55
2021/12/30 13:36:29;;;;;;;24.67;6.72;;;12.60;99.90;;;;;;5051693;28;20044;-56
2021/12/30 13:39:10;;;;;;;24.05;7.28;;;12.60;99.90;;;;;;5050653;28;20041;-56
2021/12/30 13:41:37;;;;;;;44.10;13.48;;;12.50;99.90;;;;;;5050726;28;20455;-55
2021/12/30 13:44:09;;;;;;;36.25;9.20;;;12.50;99.90;;;;;;5051809;28;20099;-56
2021/12/30 13:46:35;;;;;;;44.22;23.05;;;12.50;99.90;;;;;;5051543;28;20304;-55
2021/12/30 13:49:01;;;;;;;64.22;39.90;;;12.50;99.90;;;;;;5051324;28;20111;-56
2021/12/30 13:51:28;;;;;;;30.65;9.55;;;12.50;99.90;;;;;;5051135;28;20041;-55
2021/12/30 13:53:55;;;;;;;28.52;7.93;;;12.70;99.90;;;;;;5033514;28;20095;-55
2021/12/30 13:56:25;;;;;;;36.80;14.80;;;12.50;99.90;;;;;;5050283;28;20041;-55
2021/12/30 13:58:51;;;;;;;44.67;22.08;;;12.50;99.90;;;;;;5051395;28;20500;-55
2021/12/30 14:01:21;;;;;;;33.58;9.25;;;12.50;99.90;;;;;;5051220;28;20052;-52
2021/12/30 14:04:03;;;;;;;28.10;7.45;;;12.50;99.90;;;;;;5033710;28;20472;-55
2021/12/30 14:06:29;;;;;;;30.45;8.00;;;12.50;99.90;;;;;;5049291;28;20408;-55
2021/12/30 14:09:03;;;;;;;34.28;8.32;;;12.50;99.90;;;;;;5051292;28;20396;-55
2021/12/30 14:11:33;;;;;;;31.38;9.50;;;12.50;99.90;;;;;;5051040;28;20059;-55
2021/12/30 14:14:00;;;;;;;28.85;7.38;;;12.50;99.90;;;;;;5050582;28;20114;-55
2021/12/30 14:16:36;;;;;;;32.47;7.93;;;12.50;99.90;;;;;;5051050;28;20036;-52
2021/12/30 14:19:03;;;;;;;34.10;7.88;;;12.50;99.90;;;;;;5051354;28;20041;-55
2021/12/30 14:21:31;;;;;;;30.95;7.63;;;12.50;99.90;;;;;;5050125;28;20041;-55
2021/12/30 14:24:09;;;;;;;29.85;8.27;;;12.50;99.90;;;;;;5051538;28;20045;-55
2021/12/30 14:26:35;;;;;;;22.77;6.50;;;12.50;99.90;;;;;;5051194;28;20044;-55
2021/12/30 14:29:30;;;;;;;27.55;7.10;;;12.60;99.90;;;;;;5051045;28;20037;-56
2021/12/30 14:32:03;;;;;;;16.02;6.60;;;12.60;99.90;;;;;;5046755;28;20049;-55
2021/12/30 14:34:38;;;;;;;24.35;7.53;;;12.60;99.90;;;;;;5051103;28;20040;-55
2021/12/30 14:37:05;;;;;;;21.15;7.32;;;12.60;99.90;;;;;;5049765;28;20106;-55
2021/12/30 14:39:39;;;;;;;28.27;8.57;;;12.60;99.90;;;;;;5042995;28;20464;-55
2021/12/30 14:42:08;;;;;;;24.63;8.15;;;12.60;99.90;;;;;;5045591;28;20095;-55
2021/12/30 14:44:33;;;;;;;19.98;6.95;;;12.60;99.90;;;;;;5050834;28;20466;-55
2021/12/30 14:47:04;;;;;;;22.70;6.95;;;12.60;99.90;;;;;;5049098;28;20120;-55
2021/12/30 14:49:30;;;;;;;25.85;7.57;;;12.60;99.90;;;;;;5050983;28;20103;-55
2021/12/30 14:52:42;;;;;;;18.13;6.72;;;12.60;99.90;;;;;;5051302;28;20037;-55
2021/12/30 14:55:19;;;;;;;25.33;6.97;;;12.60;99.90;;;;;;4992866;28;20073;-55
2021/12/30 14:57:46;;;;;;;27.65;7.43;;;12.60;99.90;;;;;;5051125;28;20060;-55
2021/12/30 15:00:16;;;;;;;24.83;6.75;;;12.60;99.90;;;;;;5054546;28;20044;-54
2021/12/30 15:02:42;;;;;;;24.63;6.88;;;12.60;99.90;;;;;;5054364;28;20114;-55
2021/12/30 15:05:08;;;;;;;20.70;6.65;;;12.60;99.90;;;;;;5054391;28;20124;-55
2021/12/30 15:07:34;;;;;;;18.60;6.18;;;12.60;99.90;;;;;;5054545;28;20037;-55
2021/12/30 15:10:03;;;;;;;18.50;5.70;;;12.60;99.90;;;;;;5053986;28;20136;-55
2021/12/30 15:12:31;;;;;;;21.67;6.22;;;12.60;99.90;;;;;;5053920;28;20188;-55
2021/12/30 15:14:59;;;;;;;19.45;6.70;;;12.60;99.90;;;;;;5054672;28;20041;-55
2021/12/30 15:17:24;;;;;;;26.17;7.10;;;12.60;99.90;;;;;;5054409;28;20116;-55
2021/12/30 15:19:50;;;;;;;24.75;7.22;;;12.60;99.90;;;;;;5049303;28;20193;-55
2021/12/30 15:22:17;;;;;;;28.55;7.20;;;12.60;99.90;;;;;;5033979;28;20083;-54
2021/12/30 15:24:43;;;;;;;18.38;6.07;;;12.60;99.90;;;;;;5032953;28;20095;-55
2021/12/30 15:27:14;;;;;;;27.02;7.10;;;12.50;99.90;;;;;;5016317;28;20045;-55
2021/12/30 15:29:43;;;;;;;17.10;6.07;;;12.50;99.90;;;;;;5046624;28;20033;-54
2021/12/30 15:32:09;;;;;;;22.55;6.50;;;12.50;99.90;;;;;;5053771;28;20520;-55
2021/12/30 15:34:35;;;;;;;21.20;6.60;;;12.50;99.90;;;;;;5052378;28;20097;-56
2021/12/30 15:37:02;;;;;;;22.08;6.57;;;12.50;99.90;;;;;;5053801;28;20045;-55
2021/12/30 15:39:29;;;;;;;26.23;7.55;;;12.50;99.90;;;;;;5053307;28;20043;-55
2021/12/30 15:41:55;;;;;;;23.65;6.85;;;12.50;99.90;;;;;;5053699;28;20037;-55
2021/12/30 15:44:21;;;;;;;19.48;7.50;;;12.50;99.90;;;;;;5036385;28;20500;-55
2021/12/30 15:46:47;;;;;;;26.40;7.63;;;12.60;99.90;;;;;;5052444;28;20151;-55
2021/12/30 15:49:14;;;;;;;24.23;7.80;;;12.60;99.90;;;;;;5053389;28;20061;-55
2021/12/30 15:51:40;;;;;;;22.40;7.72;;;12.60;99.90;;;;;;5052426;28;20033;-56
2021/12/30 15:54:09;;;;;;;25.95;7.80;;;12.60;99.90;;;;;;5053426;28;20126;-55
2021/12/30 15:56:35;;;;;;;24.48;7.53;;;12.60;99.90;;;;;;5051664;28;20029;-53
2021/12/30 15:59:00;;;;;;;19.33;7.30;;;12.60;99.90;;;;;;5053316;28;20073;-53
2021/12/30 16:01:26;;;;;;;27.40;7.47;;;12.60;99.90;;;;;;5052128;28;20037;-56
2021/12/30 16:03:52;;;;;;;25.20;8.55;;;12.60;99.90;;;;;;5053265;28;20091;-56
2021/12/30 16:06:18;;;;;;;23.38;8.55;;;12.60;99.90;;;;;;5067724;22;20385;-56
2021/12/30 16:08:44;;;;;;;27.35;7.70;;;12.60;99.90;;;;;;5059217;28;20492;-56
2021/12/30 16:11:11;;;;;;;23.60;8.60;;;12.70;99.90;;;;;;5071904;28;20047;-57
2021/12/30 16:13:37;;;;;;;21.13;8.93;;;12.70;99.90;;;;;;5073160;28;20076;-57
2021/12/30 16:16:05;;;;;;;23.58;8.13;;;12.70;99.90;;;;;;5058116;28;20511;-56
2021/12/30 16:18:32;;;;;;;24.83;8.48;;;12.70;99.90;;;;;;5053824;28;20044;-56
2021/12/30 16:21:01;;;;;;;25.52;9.38;;;12.70;99.90;;;;;;5054011;28;20405;-57
2021/12/30 16:23:27;;;;;;;25.27;10.23;;;12.70;99.90;;;;;;5044478;28;20044;-57
2021/12/30 16:25:53;;;;;;;27.52;9.40;;;12.60;99.90;;;;;;5047835;28;20045;-57
2021/12/30 16:28:18;;;;;;;30.48;10.32;;;12.60;99.90;;;;;;5054535;28;20041;-57
2021/12/30 16:30:44;;;;;;;23.77;10.73;;;12.60;99.90;;;;;;5058841;28;20037;-56
2021/12/30 16:33:12;;;;;;;27.98;10.85;;;12.70;99.90;;;;;;5046478;28;20672;-56
2021/12/30 16:35:38;;;;;;;27.80;11.02;;;12.60;99.90;;;;;;5050642;28;20037;-54
2021/12/30 16:38:03;;;;;;;27.10;11.23;;;12.70;99.90;;;;;;5046106;28;20052;-51
2021/12/30 16:40:29;;;;;;;27.95;10.45;;;12.60;99.90;;;;;;5044938;28;20037;-54
2021/12/30 16:42:56;;;;;;;23.10;10.43;;;12.60;99.90;;;;;;5050955;28;20412;-55
2021/12/30 16:45:22;;;;;;;22.60;10.60;;;12.60;99.90;;;;;;5060668;28;20044;-53
2021/12/30 16:47:48;;;;;;;27.70;10.85;;;12.60;99.90;;;;;;5035892;28;20124;-55
2021/12/30 16:50:14;;;;;;;23.00;11.52;;;12.60;99.90;;;;;;5052341;28;20032;-52
2021/12/30 16:52:40;;;;;;;28.08;11.45;;;12.60;99.90;;;;;;5075079;28;20037;-53
2021/12/30 16:55:07;;;;;;;27.92;12.73;;;12.60;99.90;;;;;;5074848;28;20472;-54
2021/12/30 16:57:33;;;;;;;27.80;13.32;;;12.60;99.90;;;;;;5059394;28;20046;-53
2021/12/30 16:59:59;;;;;;;31.13;12.95;;;12.60;99.90;;;;;;5048246;28;20091;-51
2021/12/30 17:02:24;;;;;;;26.23;13.52;;;12.60;99.90;;;;;;5034102;28;20484;-53
2021/12/30 17:04:50;;;;;;;33.75;13.93;;;12.60;99.90;;;;;;5032150;28;20168;-52
2021/12/30 17:07:15;;;;;;;32.83;13.90;;;12.60;99.90;;;;;;5052932;28;20063;-54
2021/12/30 17:09:41;;;;;;;24.52;13.25;;;12.60;99.90;;;;;;5048206;28;20056;-51
2021/12/30 17:12:07;;;;;;;28.58;13.90;;;12.50;99.90;;;;;;5059403;28;20078;-54
2021/12/30 17:14:33;;;;;;;33.45;14.88;;;12.50;99.90;;;;;;5053987;28;20041;-54
2021/12/30 17:17:00;;;;;;;33.13;14.65;;;12.50;99.90;;;;;;5052486;28;20032;-55
2021/12/30 17:19:28;;;;;;;35.45;15.25;;;12.50;99.90;;;;;;5050680;28;20052;-55
2021/12/30 17:21:53;;;;;;;35.55;16.27;;;12.50;99.90;;;;;;5062766;28;20499;-55
2021/12/30 17:24:19;;;;;;;36.75;15.55;;;12.40;99.90;;;;;;5060172;28;20075;-55
2021/12/30 17:26:46;;;;;;;37.88;17.05;;;12.50;99.90;;;;;;5045817;28;20055;-53
2021/12/30 17:29:12;;;;;;;42.25;16.05;;;12.50;99.90;;;;;;5056758;28;20041;-54
2021/12/30 17:31:38;;;;;;;43.75;17.65;;;12.50;99.90;;;;;;5054227;28;20044;-52
2021/12/30 17:34:04;;;;;;;41.33;18.05;;;12.50;99.90;;;;;;5051321;28;20037;-54
2021/12/30 17:36:30;;;;;;;39.28;17.52;;;12.50;99.90;;;;;;5058509;28;20518;-55
2021/12/30 17:38:56;;;;;;;37.67;16.65;;;12.40;99.90;;;;;;5049041;28;20045;-53
2021/12/30 17:41:22;;;;;;;44.47;18.55;;;12.50;99.90;;;;;;5056599;28;20044;-55
2021/12/30 17:43:49;;;;;;;38.55;18.17;;;12.50;99.90;;;;;;5045858;28;20043;-53
2021/12/30 17:46:15;;;;;;;46.55;18.80;;;12.50;99.90;;;;;;5051178;28;20086;-55
2021/12/30 17:48:40;;;;;;;47.53;19.38;;;12.40;99.90;;;;;;5056810;28;20530;-54
2021/12/30 17:51:07;;;;;;;36.83;17.65;;;12.50;99.90;;;;;;5035150;28;20094;-55
2021/12/30 17:53:33;;;;;;;42.67;18.33;;;12.50;99.90;;;;;;5038108;28;20040;-52
2021/12/30 17:56:00;;;;;;;38.50;17.42;;;12.50;99.90;;;;;;5046583;28;20037;-54
2021/12/30 17:58:25;;;;;;;40.55;17.27;;;12.50;99.90;;;;;;5048168;28;20079;-54
2021/12/30 18:00:53;;;;;;;33.83;17.48;;;12.50;99.90;;;;;;5047678;28;20512;-53
2021/12/30 18:03:18;;;;;;;38.10;16.95;;;12.50;99.90;;;;;;5048784;28;20427;-52
2021/12/30 18:05:44;;;;;;;37.92;16.95;;;12.50;99.90;;;;;;5051474;28;20064;-52
2021/12/30 18:08:10;;;;;;;35.63;16.67;;;12.50;99.90;;;;;;5067141;28;20512;-54
2021/12/30 18:10:36;;;;;;;36.42;16.23;;;12.50;99.90;;;;;;5057831;28;20033;-55
2021/12/30 18:13:04;;;;;;;38.05;16.27;;;12.50;99.90;;;;;;5047084;28;20037;-54
2021/12/30 18:15:32;;;;;;;34.53;16.15;;;12.60;99.90;;;;;;5048276;28;20041;-52
2021/12/30 18:17:58;;;;;;;31.73;14.57;;;12.60;99.90;;;;;;5054507;28;20075;-53